Time;durP1;ratioP1;P1;durP2;ratioP2;P2;SDS_P1;SDS_P2;PMS_P1;PMS_P2;Temp;Humidity;BMP_temperature;BMP_pressure;BME280_temperature;BME280_humidity;BME280_pressure;Samples;Min_cycle;Max_cycle;Signal;HPM_P1;HPM_P2
2023/12/22 00:01:00;;;;;;;46.60;21.70;;;3.30;99.90;;;3.03;63.63;93482.84;5090220;28;21588;-61
2023/12/22 00:03:27;;;;;;;41.87;20.87;;;3.30;99.90;;;3.04;63.95;93463.72;5089425;28;20449;-60
2023/12/22 00:05:55;;;;;;;48.00;22.83;;;3.30;99.90;;;3.07;64.12;93462.63;5081175;28;21314;-58
2023/12/22 00:08:23;;;;;;;39.67;21.93;;;3.30;99.90;;;3.09;63.62;93455.53;5083084;28;20445;-61
2023/12/22 00:10:51;;;;;;;47.47;22.30;;;3.30;99.90;;;3.13;63.81;93449.94;5084808;28;20467;-60
2023/12/22 00:13:19;;;;;;;34.87;19.50;;;3.40;99.90;;;3.16;63.73;93456.66;5089817;28;20499;-60
2023/12/22 00:15:46;;;;;;;39.60;20.30;;;3.40;99.90;;;3.19;63.87;93449.44;5082278;28;20458;-61
2023/12/22 00:18:14;;;;;;;41.90;22.07;;;3.40;99.90;;;3.21;63.90;93450.13;5085069;28;20457;-61
2023/12/22 00:20:41;;;;;;;50.13;22.03;;;3.50;99.90;;;3.25;63.58;93445.47;5084834;28;20489;-61
2023/12/22 00:23:08;;;;;;;37.13;22.00;;;3.50;99.90;;;3.27;63.30;93440.13;5081945;28;20473;-55
2023/12/22 00:25:36;;;;;;;38.37;18.47;;;3.50;99.90;;;3.27;63.36;93433.19;5083959;28;20886;-55
2023/12/22 00:28:05;;;;;;;41.87;18.30;;;3.50;99.90;;;3.27;64.52;93420.19;5081630;28;20450;-59
2023/12/22 00:30:32;;;;;;;41.67;19.57;;;3.50;99.90;;;3.29;63.66;93422.66;5084053;28;20462;-55
2023/12/22 00:33:00;;;;;;;33.67;18.93;;;3.50;99.90;;;3.26;64.25;93426.34;5081262;28;20505;-62
2023/12/22 00:35:27;;;;;;;53.20;24.03;;;3.50;99.90;;;3.23;63.85;93409.22;5084284;28;20470;-61
2023/12/22 00:37:53;;;;;;;53.93;26.20;;;3.50;99.90;;;3.21;63.12;93415.53;5083933;28;20457;-57
2023/12/22 00:40:20;;;;;;;48.67;25.17;;;3.40;99.90;;;3.19;64.57;93420.84;5084573;28;20528;-55
2023/12/22 00:42:48;;;;;;;54.93;27.07;;;3.40;99.90;;;3.17;63.39;93416.72;5083197;28;20449;-61
2023/12/22 00:45:18;;;;;;;55.13;27.70;;;3.40;99.90;;;3.16;63.57;93420.28;5086456;28;20896;-62
2023/12/22 00:47:45;;;;;;;51.27;27.37;;;3.40;99.90;;;3.14;63.87;93419.59;5084418;28;20454;-61
2023/12/22 00:50:12;;;;;;;44.97;26.00;;;3.40;99.90;;;3.16;64.28;93420.28;5084191;28;20813;-61
2023/12/22 00:52:40;;;;;;;53.67;26.17;;;3.40;99.90;;;3.19;63.56;93428.66;5081616;28;20462;-61
2023/12/22 00:55:08;;;;;;;53.10;26.43;;;3.40;99.90;;;3.25;63.71;93411.69;5083416;28;20850;-57
2023/12/22 00:57:35;;;;;;;52.33;24.90;;;3.50;99.90;;;3.27;64.35;93409.81;5081302;28;20463;-60
2023/12/22 01:00:04;;;;;;;46.40;24.80;;;3.50;99.90;;;3.32;64.14;93420.63;5081990;28;20466;-61
2023/12/22 01:02:33;;;;;;;49.70;25.77;;;3.60;99.90;;;3.36;63.95;93411.63;5082098;28;20970;-60
2023/12/22 01:05:00;;;;;;;52.67;25.30;;;3.60;99.90;;;3.41;63.77;93409.44;5080626;28;20463;-58
2023/12/22 01:07:28;;;;;;;38.27;19.63;;;3.60;99.90;;;3.44;63.89;93403.16;5080062;28;20836;-57
2023/12/22 01:09:55;;;;;;;36.90;19.50;;;3.70;99.90;;;3.48;64.22;93407.09;5079811;28;20566;-54
2023/12/22 01:12:22;;;;;;;39.00;18.70;;;3.70;99.90;;;3.51;63.57;93408.63;5082965;28;20454;-61
2023/12/22 01:14:51;;;;;;;35.77;17.30;;;3.70;99.90;;;3.55;63.61;93405.63;5081046;28;20474;-61
2023/12/22 01:17:19;;;;;;;30.40;15.13;;;3.70;99.90;;;3.59;63.36;93409.63;5083225;28;20549;-57
2023/12/22 01:19:47;;;;;;;30.43;13.60;;;3.80;99.90;;;3.63;63.78;93393.75;5084100;28;20470;-56
2023/12/22 01:22:15;;;;;;;22.73;12.90;;;3.80;99.90;;;3.63;63.33;93394.56;5086842;28;20460;-55
2023/12/22 01:24:43;;;;;;;24.60;12.37;;;3.80;99.90;;;3.66;63.36;93406.47;5080784;28;20467;-55
2023/12/22 01:27:10;;;;;;;20.10;11.63;;;3.80;99.90;;;3.65;63.41;93392.63;5082925;28;20486;-56
2023/12/22 01:29:38;;;;;;;21.50;12.27;;;3.80;99.90;;;3.64;63.18;93388.41;5080391;28;20532;-61
2023/12/22 01:32:06;;;;;;;20.00;11.43;;;3.80;99.90;;;3.64;63.06;93388.41;5082845;28;20871;-62
2023/12/22 01:34:33;;;;;;;27.40;12.07;;;3.90;99.90;;;3.67;63.17;93387.31;5081590;28;20837;-58
2023/12/22 01:37:02;;;;;;;25.33;11.93;;;3.90;99.90;;;3.68;63.27;93378.56;5080736;28;20454;-56
2023/12/22 01:39:29;;;;;;;19.77;12.00;;;3.90;99.90;;;3.68;63.21;93370.75;5083912;28;20537;-57
2023/12/22 01:41:56;;;;;;;29.13;12.50;;;3.90;99.90;;;3.69;63.29;93365.41;5083969;28;20902;-54
2023/12/22 01:44:24;;;;;;;19.13;11.03;;;3.90;99.90;;;3.73;62.98;93368.56;5082947;28;20957;-56
2023/12/22 01:46:51;;;;;;;20.10;11.17;;;3.90;99.90;;;3.73;62.95;93353.81;5080096;28;20501;-55
2023/12/22 01:49:19;;;;;;;24.27;12.43;;;3.90;99.90;;;3.72;63.25;93369.53;5082117;28;20458;-61
2023/12/22 01:51:46;;;;;;;18.20;10.33;;;3.90;99.90;;;3.72;63.47;93348.75;5080170;28;20464;-56
2023/12/22 01:54:15;;;;;;;18.23;10.33;;;3.90;99.90;;;3.73;63.23;93353.81;5081648;28;20952;-56
2023/12/22 01:56:42;;;;;;;12.50;9.20;;;3.90;99.90;;;3.74;62.99;93352.81;5080485;28;20552;-61
2023/12/22 01:59:10;;;;;;;19.00;10.13;;;3.90;99.90;;;3.79;63.04;93352.41;5082462;28;20514;-62
2023/12/22 02:01:37;;;;;;;21.10;9.80;;;4.00;99.90;;;3.79;63.49;93344.63;5080767;28;20439;-56
2023/12/22 02:04:05;;;;;;;19.40;11.57;;;4.00;99.90;;;3.81;63.11;93347.09;5083314;28;20673;-55
2023/12/22 02:06:32;;;;;;;19.60;12.13;;;4.00;99.90;;;3.80;63.27;93351.47;5083366;28;20997;-56
2023/12/22 02:08:59;;;;;;;25.07;10.13;;;4.00;99.90;;;3.82;63.26;93349.53;5085529;28;20454;-55
2023/12/22 02:11:29;;;;;;;27.13;11.10;;;4.00;99.90;;;3.84;63.01;93346.81;5078723;28;20451;-61
2023/12/22 02:13:56;;;;;;;22.60;10.60;;;4.00;99.90;;;3.83;63.02;93335.59;5079743;28;20450;-55
2023/12/22 02:16:29;;;;;;;18.27;10.60;;;4.00;99.90;;;3.83;63.29;93346.00;5081076;28;21022;-60
2023/12/22 02:18:57;;;;;;;17.50;10.37;;;4.00;99.90;;;3.83;63.39;93330.41;5081629;28;20445;-62
2023/12/22 02:21:24;;;;;;;14.23;9.80;;;4.00;99.90;;;3.82;63.15;93331.34;5080366;28;20616;-61
2023/12/22 02:23:53;;;;;;;19.70;10.77;;;4.00;99.90;;;3.83;63.06;93325.19;5078208;28;20458;-57
2023/12/22 02:26:28;;;;;;;17.17;11.20;;;4.00;99.80;;;3.82;62.97;93320.94;5078542;28;20983;-61
2023/12/22 02:28:56;;;;;;;21.53;11.67;;;4.00;99.90;;;3.81;63.07;93329.72;5077884;28;20487;-61
2023/12/22 02:31:29;;;;;;;21.47;12.40;;;4.00;99.90;;;3.82;63.09;93325.31;5081900;28;20473;-56
2023/12/22 02:33:56;;;;;;;26.70;11.47;;;4.00;99.90;;;3.80;62.89;93333.25;5077138;28;20443;-60
2023/12/22 02:36:23;;;;;;;28.93;16.90;;;4.00;99.90;;;3.79;63.04;93338.59;5081286;28;20470;-57
2023/12/22 02:38:52;;;;;;;35.20;19.73;;;4.00;99.90;;;3.73;62.75;93333.00;5076554;28;20496;-61
2023/12/22 02:41:19;;;;;;;46.13;20.47;;;3.90;99.80;;;3.66;62.54;93344.09;5084708;28;20528;-56
2023/12/22 02:43:47;;;;;;;43.30;20.77;;;3.90;99.60;;;3.61;62.54;93335.84;5080836;28;20958;-61
2023/12/22 02:46:15;;;;;;;34.37;20.87;;;3.80;99.60;;;3.54;62.98;93331.19;5079818;28;20497;-61
2023/12/22 02:48:42;;;;;;;40.40;20.97;;;3.70;99.60;;;3.50;62.79;93332.44;5079321;28;20490;-56
2023/12/22 02:51:10;;;;;;;39.00;20.80;;;3.70;99.80;;;3.47;62.97;93314.50;5081544;28;20482;-57
2023/12/22 02:53:37;;;;;;;35.37;19.70;;;3.70;99.90;;;3.47;63.46;93309.31;5080602;28;20512;-56
2023/12/22 02:56:07;;;;;;;35.40;19.43;;;3.70;99.90;;;3.47;62.85;93300.69;5082910;28;20484;-57
2023/12/22 02:58:34;;;;;;;42.60;20.47;;;3.70;99.90;;;3.46;63.30;93294.66;5078508;28;20454;-58
2023/12/22 03:01:01;;;;;;;38.17;20.00;;;3.70;99.90;;;3.44;63.47;93294.00;5078565;28;20467;-57
2023/12/22 03:03:29;;;;;;;42.17;21.07;;;3.70;99.90;;;3.46;63.57;93305.06;5078829;28;20966;-60
2023/12/22 03:05:56;;;;;;;39.50;20.30;;;3.70;99.90;;;3.45;63.75;93305.19;5079134;28;20549;-55
2023/12/22 03:08:23;;;;;;;41.30;20.90;;;3.70;99.90;;;3.41;63.22;93300.28;5075827;28;20446;-56
2023/12/22 03:10:51;;;;;;;39.73;19.07;;;3.60;99.90;;;3.39;63.28;93301.34;5079800;28;20542;-61
2023/12/22 03:13:19;;;;;;;42.87;21.00;;;3.60;99.90;;;3.41;63.86;93322.84;5084872;28;20453;-56
2023/12/22 03:15:47;;;;;;;37.67;20.80;;;3.60;99.90;;;3.44;64.40;93311.34;5080659;28;21035;-54
2023/12/22 03:18:14;;;;;;;41.97;20.27;;;3.60;99.90;;;3.44;64.16;93317.38;5078102;28;20590;-56
2023/12/22 03:20:42;;;;;;;35.93;20.70;;;3.60;99.90;;;3.46;63.85;93312.88;5075955;28;20470;-60
2023/12/22 03:23:09;;;;;;;40.00;21.37;;;3.60;99.90;;;3.50;63.87;93314.25;5084706;28;20461;-61
2023/12/22 03:25:36;;;;;;;49.57;22.73;;;3.70;99.90;;;3.53;63.64;93313.13;5083260;28;20466;-54
2023/12/22 03:28:05;;;;;;;42.50;22.07;;;3.70;99.90;;;3.55;63.52;93317.25;5082525;28;20555;-57
2023/12/22 03:30:35;;;;;;;44.57;24.10;;;3.70;99.90;;;3.61;63.45;93317.66;5088105;28;20462;-62
2023/12/22 03:33:03;;;;;;;38.97;21.57;;;3.80;99.90;;;3.63;63.52;93313.16;5083238;28;20807;-62
2023/12/22 03:35:30;;;;;;;38.43;22.87;;;3.80;99.90;;;3.62;63.16;93309.72;5085078;28;20474;-61
2023/12/22 03:37:57;;;;;;;44.10;23.17;;;3.80;99.90;;;3.60;63.45;93309.03;5083672;28;20454;-62
2023/12/22 03:40:25;;;;;;;55.17;24.87;;;3.80;99.90;;;3.56;63.83;93303.31;5087156;28;20473;-60
2023/12/22 03:42:52;;;;;;;45.87;21.57;;;3.80;99.90;;;3.55;63.41;93301.66;5085520;28;20459;-61
2023/12/22 03:45:19;;;;;;;39.43;21.60;;;3.80;99.90;;;3.57;63.94;93304.94;5085350;28;20468;-56
2023/12/22 03:47:48;;;;;;;44.47;22.80;;;3.80;99.90;;;3.57;63.93;93297.13;5081851;28;21037;-57
2023/12/22 03:50:15;;;;;;;42.40;23.40;;;3.80;99.90;;;3.60;64.01;93303.84;5084948;28;21369;-55
2023/12/22 03:52:43;;;;;;;40.67;20.60;;;3.80;99.90;;;3.63;63.43;93310.56;5087093;28;20450;-59
2023/12/22 03:55:10;;;;;;;39.97;21.33;;;3.80;99.90;;;3.63;63.80;93305.34;5085181;28;20557;-60
2023/12/22 03:57:37;;;;;;;44.77;20.93;;;3.80;99.90;;;3.63;63.70;93311.38;5084533;28;20461;-61
2023/12/22 04:00:06;;;;;;;37.13;20.10;;;3.80;99.90;;;3.60;63.70;93309.03;5083168;28;20467;-56
2023/12/22 04:02:33;;;;;;;34.07;19.47;;;3.80;99.90;;;3.59;64.45;93308.22;5084903;28;20808;-56
2023/12/22 04:05:02;;;;;;;33.40;19.10;;;3.80;99.90;;;3.61;64.64;93308.09;5081026;28;20954;-55
2023/12/22 04:07:30;;;;;;;35.07;18.97;;;3.80;99.90;;;3.67;64.82;93298.91;5081648;28;20485;-60
2023/12/22 04:09:57;;;;;;;34.87;18.40;;;3.80;99.90;;;3.72;64.87;93307.13;5081509;28;20857;-56
2023/12/22 04:12:24;;;;;;;32.63;17.50;;;3.90;99.90;;;3.77;64.53;93297.94;5088841;28;20479;-56
2023/12/22 04:14:53;;;;;;;38.80;18.40;;;3.90;99.90;;;3.83;65.01;93303.56;5084591;28;20463;-57
2023/12/22 04:17:20;;;;;;;32.17;18.00;;;4.00;99.90;;;3.86;64.88;93305.91;5083892;28;20450;-61
2023/12/22 04:19:48;;;;;;;32.30;17.83;;;4.10;99.90;;;3.93;64.59;93304.38;5084233;28;20459;-55
2023/12/22 04:22:16;;;;;;;30.30;16.80;;;4.10;99.90;;;3.97;64.83;93305.75;5084347;28;20457;-61
2023/12/22 04:24:44;;;;;;;34.17;17.47;;;4.10;99.90;;;3.98;64.57;93301.34;5081540;28;20470;-58
2023/12/22 04:27:11;;;;;;;33.60;16.97;;;4.10;99.90;;;4.01;65.15;93295.88;5083952;28;20492;-56
2023/12/22 04:29:38;;;;;;;28.47;16.20;;;4.20;99.90;;;4.03;64.52;93304.34;5080711;28;20467;-57
2023/12/22 04:32:06;;;;;;;31.93;16.60;;;4.20;99.90;;;4.07;64.84;93292.72;5084424;28;20461;-57
2023/12/22 04:34:33;;;;;;;21.77;14.73;;;4.20;99.90;;;4.11;64.44;93291.47;5083355;28;21043;-56
2023/12/22 04:37:01;;;;;;;28.10;17.30;;;4.30;99.90;;;4.16;65.12;93294.47;5080671;28;20447;-57
2023/12/22 04:39:29;;;;;;;28.63;16.33;;;4.30;99.90;;;4.20;65.27;93289.81;5087343;28;20963;-57
2023/12/22 04:41:57;;;;;;;28.37;17.67;;;4.40;99.90;;;4.22;65.27;93278.31;5082846;28;21007;-61
2023/12/22 04:44:24;;;;;;;30.47;17.17;;;4.40;99.90;;;4.24;65.20;93278.97;5083482;28;20473;-61
2023/12/22 04:46:51;;;;;;;21.43;13.50;;;4.50;99.90;;;4.27;65.54;93283.09;5079601;28;20568;-56
2023/12/22 04:49:18;;;;;;;25.10;14.00;;;4.50;99.90;;;4.30;65.60;93269.78;5086192;28;20457;-56
2023/12/22 04:51:46;;;;;;;23.80;13.77;;;4.50;99.90;;;4.30;66.25;93275.00;5083965;28;20914;-63
2023/12/22 04:54:13;;;;;;;26.07;13.87;;;4.50;99.90;;;4.31;65.55;93280.06;5082104;28;20442;-61
2023/12/22 04:56:41;;;;;;;29.17;17.20;;;4.50;99.90;;;4.31;65.56;93274.84;5079377;28;21113;-61
2023/12/22 04:59:09;;;;;;;32.93;16.13;;;4.50;99.90;;;4.35;65.85;93282.38;5083444;28;20457;-62
2023/12/22 05:01:36;;;;;;;20.43;14.60;;;4.50;99.90;;;4.36;65.98;93264.03;5083020;28;20449;-61
2023/12/22 05:04:04;;;;;;;31.27;17.90;;;4.50;99.90;;;4.37;65.66;93264.81;5076862;28;20439;-61
2023/12/22 05:06:31;;;;;;;24.00;15.87;;;4.60;99.90;;;4.36;66.76;93253.59;5075506;28;20486;-55
2023/12/22 05:08:58;;;;;;;29.70;14.77;;;4.50;99.90;;;4.35;66.38;93262.38;5079227;28;20869;-55
2023/12/22 05:11:26;;;;;;;26.33;17.43;;;4.50;99.90;;;4.31;65.73;93254.03;5077921;28;20834;-56
2023/12/22 05:13:54;;;;;;;21.53;13.00;;;4.50;99.90;;;4.31;66.02;93251.44;5084100;28;20453;-61
2023/12/22 05:16:21;;;;;;;29.33;14.93;;;4.50;99.90;;;4.29;66.07;93263.78;5078915;28;20467;-59
2023/12/22 05:18:49;;;;;;;26.87;14.60;;;4.50;99.90;;;4.30;66.06;93270.59;5078685;28;20466;-56
2023/12/22 05:21:16;;;;;;;17.93;12.30;;;4.50;99.90;;;4.32;65.99;93262.66;5079372;28;20508;-57
2023/12/22 05:23:43;;;;;;;35.30;15.33;;;4.50;99.90;;;4.34;66.16;93265.94;5082393;28;20973;-54
2023/12/22 05:26:11;;;;;;;34.10;20.47;;;4.50;99.90;;;4.37;66.20;93275.25;5082078;28;20469;-58
2023/12/22 05:28:38;;;;;;;32.70;20.00;;;4.50;99.90;;;4.38;66.51;93282.91;5078500;28;20536;-57
2023/12/22 05:31:06;;;;;;;24.97;16.07;;;4.50;99.90;;;4.40;66.49;93273.19;5084092;28;20481;-60
2023/12/22 05:33:34;;;;;;;24.97;15.47;;;4.60;99.90;;;4.44;66.58;93276.31;5083317;28;20833;-57
2023/12/22 05:36:01;;;;;;;20.47;11.80;;;4.60;99.90;;;4.46;66.21;93266.56;5081397;28;20462;-60
2023/12/22 05:38:28;;;;;;;24.77;13.97;;;4.60;99.90;;;4.48;66.06;93277.69;5085269;28;20450;-60
2023/12/22 05:40:55;;;;;;;26.80;12.00;;;4.60;99.90;;;4.53;66.25;93253.84;5081593;28;20886;-62
2023/12/22 05:43:23;;;;;;;22.93;12.63;;;4.70;99.90;;;4.58;66.11;93251.59;5077230;28;20954;-59
2023/12/22 05:45:50;;;;;;;20.97;13.23;;;4.70;99.90;;;4.62;66.14;93253.78;5081201;28;20490;-54
2023/12/22 05:48:21;;;;;;;23.53;13.13;;;4.80;99.90;;;4.66;66.27;93262.13;5076327;28;20861;-57
2023/12/22 05:50:49;;;;;;;29.63;13.20;;;4.80;99.90;;;4.68;66.53;93249.78;5078772;28;20483;-55
2023/12/22 05:53:16;;;;;;;22.07;12.43;;;4.80;99.90;;;4.71;66.30;93251.28;5087678;28;20446;-56
2023/12/22 05:55:43;;;;;;;18.43;11.10;;;4.90;99.90;;;4.74;66.37;93258.78;5078561;28;20511;-60
2023/12/22 05:58:10;;;;;;;16.93;8.80;;;4.90;99.90;;;4.75;66.94;93255.22;5081590;28;20465;-56
2023/12/22 06:00:38;;;;;;;15.97;9.00;;;4.90;99.90;;;4.73;66.69;93260.59;5078517;28;20519;-61
2023/12/22 06:03:05;;;;;;;17.00;9.40;;;4.90;99.90;;;4.74;67.20;93269.22;5079830;28;20450;-61
2023/12/22 06:05:34;;;;;;;16.13;9.03;;;4.90;99.90;;;4.74;67.79;93257.03;5081093;28;20523;-56
2023/12/22 06:08:01;;;;;;;11.60;7.90;;;4.90;99.90;;;4.75;67.03;93261.25;5080547;28;20483;-60
2023/12/22 06:10:28;;;;;;;12.30;6.53;;;4.90;99.90;;;4.76;67.94;93260.28;5085095;28;20466;-60
2023/12/22 06:12:57;;;;;;;13.77;7.97;;;4.90;99.90;;;4.79;67.88;93265.22;5079333;28;20512;-60
2023/12/22 06:15:25;;;;;;;14.13;8.37;;;4.90;99.90;;;4.80;67.46;93259.06;5086230;28;20953;-60
2023/12/22 06:17:52;;;;;;;13.73;8.77;;;5.00;99.90;;;4.84;67.84;93267.38;5079549;28;20978;-60
2023/12/22 06:20:19;;;;;;;13.27;7.17;;;5.00;99.90;;;4.86;67.52;93265.44;5077389;28;20491;-61
2023/12/22 06:22:48;;;;;;;11.80;7.50;;;5.00;99.90;;;4.90;67.98;93271.22;5079990;28;20838;-62
2023/12/22 06:25:15;;;;;;;13.83;8.27;;;5.00;99.90;;;4.91;68.39;93273.66;5079048;28;20883;-61
2023/12/22 06:27:43;;;;;;;8.20;5.70;;;5.00;99.90;;;4.90;67.63;93272.03;5079537;28;20551;-56
2023/12/22 06:30:11;;;;;;;11.73;5.70;;;5.00;99.90;;;4.90;68.14;93274.63;5080660;28;20477;-61
2023/12/22 06:32:40;;;;;;;12.53;6.10;;;5.10;99.90;;;4.89;67.35;93270.38;5079438;28;20458;-62
2023/12/22 06:35:10;;;;;;;12.93;6.50;;;5.10;99.90;;;4.93;67.34;93268.31;5076805;28;20523;-56
2023/12/22 06:37:38;;;;;;;12.77;6.33;;;5.10;99.90;;;4.95;67.24;93275.00;5080958;28;20500;-61
2023/12/22 06:40:09;;;;;;;7.17;6.43;;;5.10;99.90;;;4.98;67.80;93274.72;5078064;28;20463;-56
2023/12/22 06:42:36;;;;;;;9.27;6.20;;;5.10;99.90;;;5.02;66.96;93275.25;5078046;28;20438;-56
2023/12/22 06:45:04;;;;;;;10.93;6.53;;;5.10;99.90;;;5.07;67.27;93265.22;5080970;28;20478;-61
2023/12/22 06:47:31;;;;;;;12.60;6.83;;;5.20;99.90;;;5.12;67.28;93264.78;5077191;28;21045;-56
2023/12/22 06:49:58;;;;;;;7.90;5.80;;;5.20;99.90;;;5.16;67.16;93263.53;5077037;28;21006;-56
2023/12/22 06:52:26;;;;;;;13.23;6.80;;;5.30;99.90;;;5.21;67.51;93266.50;5079885;28;20439;-62
2023/12/22 06:54:53;;;;;;;14.13;6.90;;;5.30;99.90;;;5.27;67.61;93278.94;5080182;28;20474;-61
2023/12/22 06:57:22;;;;;;;12.27;7.13;;;5.40;99.90;;;5.33;67.30;93274.91;5076021;28;20526;-62
2023/12/22 06:59:49;;;;;;;14.30;7.00;;;5.40;99.90;;;5.39;67.67;93277.75;5081015;28;20478;-61
2023/12/22 07:02:17;;;;;;;13.77;8.40;;;5.50;99.90;;;5.45;67.62;93280.72;5073621;28;20526;-61
2023/12/22 07:05:20;;;;;;;12.27;8.03;;;5.60;99.90;;;5.50;67.70;93281.94;5077542;28;21017;-55
2023/12/22 07:07:48;;;;;;;14.20;9.50;;;5.60;99.90;;;5.54;67.44;93280.66;5058385;28;20482;-62
2023/12/22 07:10:15;;;;;;;12.73;9.40;;;5.70;99.90;;;5.59;67.44;93287.22;5081221;28;20465;-61
2023/12/22 07:12:44;;;;;;;13.23;8.77;;;5.70;99.90;;;5.64;67.58;93279.75;5079633;28;20447;-54
2023/12/22 07:15:11;;;;;;;22.13;9.60;;;5.70;99.90;;;5.68;68.21;93281.13;5081670;28;20453;-56
2023/12/22 07:17:39;;;;;;;16.37;8.67;;;5.80;99.90;;;5.75;69.37;93288.19;5080497;28;20888;-61
2023/12/22 07:20:09;;;;;;;14.53;8.47;;;5.80;99.90;;;5.82;67.88;93295.41;5081318;28;20465;-62
2023/12/22 07:22:36;;;;;;;9.13;7.37;;;5.90;99.90;;;5.90;67.47;93298.09;5079905;28;20485;-61
2023/12/22 07:25:04;;;;;;;15.30;7.70;;;6.00;99.90;;;5.95;67.84;93303.69;5077768;28;20502;-61
2023/12/22 07:27:31;;;;;;;13.83;6.90;;;6.10;99.90;;;6.01;68.40;93297.06;5079966;28;20486;-61
2023/12/22 07:30:00;;;;;;;9.63;7.00;;;6.10;99.90;;;6.07;67.91;93297.31;5078337;28;20475;-64
2023/12/22 07:32:27;;;;;;;12.50;8.90;;;6.10;99.90;;;6.11;67.80;93297.81;5075885;28;20455;-57
2023/12/22 07:37:39;;;;;;;14.43;10.13;;;6.30;99.90;;;6.21;67.73;93309.00;5077072;28;20489;-62
2023/12/22 07:40:08;;;;;;;18.10;11.23;;;6.30;99.90;;;6.24;69.07;93303.47;5079932;28;20465;-57
2023/12/22 07:42:36;;;;;;;14.97;9.07;;;6.40;99.90;;;6.25;68.06;93301.66;5077175;28;20443;-61
2023/12/22 07:45:06;;;;;;;16.73;8.33;;;6.40;99.90;;;6.27;68.69;93300.53;5078249;28;20496;-61
2023/12/22 07:47:34;;;;;;;14.27;8.83;;;6.40;99.90;;;6.30;67.98;93307.22;5076944;28;20557;-62
2023/12/22 07:50:01;;;;;;;14.67;8.80;;;6.40;99.90;;;6.33;69.13;93308.72;5076188;28;20474;-62
2023/12/22 07:52:29;;;;;;;16.87;8.10;;;6.40;99.90;;;6.32;68.45;93307.91;5081250;28;20442;-61
2023/12/22 07:54:56;;;;;;;9.83;6.50;;;6.40;99.90;;;6.33;68.88;93306.13;5080552;28;20466;-56
2023/12/22 07:57:24;;;;;;;11.80;7.90;;;6.40;99.90;;;6.35;68.76;93322.44;5077762;28;20608;-57
2023/12/22 07:59:52;;;;;;;13.20;7.70;;;6.40;99.90;;;6.36;68.55;93330.13;5080216;28;21022;-57
2023/12/22 08:02:21;;;;;;;14.93;7.13;;;6.50;99.90;;;6.39;68.33;93337.66;5076198;28;20458;-61
2023/12/22 08:04:48;;;;;;;9.80;6.40;;;6.50;99.90;;;6.42;68.87;93337.34;5077125;28;20471;-56
2023/12/22 08:07:15;;;;;;;13.93;7.37;;;6.50;99.90;;;6.45;68.71;93342.25;5080350;28;21156;-62
2023/12/22 08:09:43;;;;;;;15.80;7.07;;;6.50;99.90;;;6.49;68.62;93361.09;5087703;28;20493;-61
2023/12/22 08:12:10;;;;;;;12.07;7.60;;;6.60;99.90;;;6.53;69.01;93361.59;5081114;28;20970;-60
2023/12/22 08:14:37;;;;;;;19.53;7.80;;;6.60;99.90;;;6.55;68.48;93363.09;5080750;28;21093;-58
2023/12/22 08:17:05;;;;;;;13.53;8.87;;;6.60;99.90;;;6.59;68.69;93363.59;5083955;28;20499;-56
2023/12/22 08:19:34;;;;;;;13.47;8.60;;;6.70;99.90;;;6.60;68.73;93365.22;5083945;28;20469;-57
2023/12/22 08:22:01;;;;;;;11.93;8.30;;;6.70;99.90;;;6.61;68.55;93362.44;5084095;28;20450;-57
2023/12/22 08:24:28;;;;;;;18.10;7.00;;;6.70;99.90;;;6.63;69.46;93365.75;5080955;28;20465;-58
2023/12/22 08:26:55;;;;;;;14.20;8.30;;;6.70;99.90;;;6.66;69.09;93361.97;5083693;28;20949;-56
2023/12/22 08:29:23;;;;;;;11.47;7.30;;;6.70;99.90;;;6.67;68.67;93365.44;5084092;28;20554;-61
2023/12/22 08:31:50;;;;;;;16.97;8.97;;;6.70;99.90;;;6.67;69.00;93366.25;5081169;28;20454;-61
2023/12/22 08:34:17;;;;;;;23.53;9.47;;;6.80;99.90;;;6.68;68.60;93370.50;5079715;28;20535;-62
2023/12/22 08:36:46;;;;;;;13.77;6.97;;;6.80;99.90;;;6.68;68.98;93367.06;5080727;28;20962;-61
2023/12/22 08:39:13;;;;;;;15.37;7.30;;;6.80;99.90;;;6.71;69.62;93372.81;5082827;28;20453;-62
2023/12/22 08:41:40;;;;;;;14.53;8.40;;;6.80;99.90;;;6.73;70.77;93370.84;5082321;28;20450;-61
2023/12/22 08:44:08;;;;;;;20.57;10.80;;;6.80;99.90;;;6.73;70.49;93370.84;5080740;28;20524;-56
2023/12/22 08:46:35;;;;;;;18.00;11.00;;;6.80;99.90;;;6.72;69.37;93369.22;5082727;28;20536;-56
2023/12/22 08:49:03;;;;;;;17.83;8.60;;;6.80;99.90;;;6.72;69.95;93366.59;5082837;28;20531;-62
2023/12/22 08:51:30;;;;;;;11.80;7.13;;;6.80;99.90;;;6.72;69.16;93374.44;5083675;28;20480;-56
2023/12/22 08:53:59;;;;;;;15.67;7.47;;;6.80;99.90;;;6.72;70.57;93368.41;5081206;28;20446;-56
2023/12/22 08:56:27;;;;;;;22.73;8.27;;;6.80;99.90;;;6.71;69.43;93372.81;5082637;28;20502;-57
2023/12/22 08:58:55;;;;;;;13.50;7.87;;;6.80;99.90;;;6.72;71.06;93374.44;5080769;28;20455;-56
2023/12/22 09:01:24;;;;;;;18.83;9.97;;;6.80;99.90;;;6.72;70.39;93384.06;5086490;28;20548;-61
2023/12/22 09:03:52;;;;;;;15.43;7.83;;;6.80;99.90;;;6.72;69.92;93390.09;5083431;28;20442;-57
2023/12/22 09:06:21;;;;;;;21.63;9.23;;;6.80;99.90;;;6.74;69.61;93398.63;5080536;28;20645;-61
2023/12/22 09:08:49;;;;;;;22.43;10.10;;;6.80;99.90;;;6.74;71.26;93390.81;5085960;28;20490;-56
2023/12/22 09:11:19;;;;;;;23.30;9.63;;;6.80;99.90;;;6.77;69.82;93400.94;5079887;28;20474;-61
2023/12/22 09:13:47;;;;;;;21.57;7.60;;;6.80;99.90;;;6.79;69.82;93404.22;5083028;28;20445;-61
2023/12/22 09:16:15;;;;;;;14.77;7.90;;;6.90;99.90;;;6.82;69.47;93401.28;5080237;28;20462;-63
2023/12/22 09:18:44;;;;;;;17.73;7.00;;;6.90;99.90;;;6.85;70.17;93405.41;5079603;28;20543;-61
2023/12/22 09:21:11;;;;;;;15.23;6.87;;;6.90;99.90;;;6.88;69.93;93399.03;5082142;28;20613;-60
2023/12/22 09:23:39;;;;;;;12.53;7.60;;;7.00;99.90;;;6.90;69.79;93407.56;5083309;28;21048;-60
2023/12/22 09:26:06;;;;;;;19.33;7.20;;;7.00;99.90;;;6.94;70.31;93398.41;5082884;28;20473;-61
2023/12/22 09:28:35;;;;;;;14.47;8.53;;;7.00;99.90;;;6.98;70.60;93395.34;5080591;28;20482;-61
2023/12/22 09:31:02;;;;;;;27.60;9.57;;;7.00;99.90;;;7.03;70.61;93392.25;5083051;28;21268;-61
2023/12/22 09:33:29;;;;;;;14.80;8.60;;;7.10;99.90;;;7.08;70.98;93383.94;5082257;28;20461;-56
2023/12/22 09:35:57;;;;;;;15.43;7.80;;;7.10;99.90;;;7.11;70.61;93383.66;5085427;28;20908;-60
2023/12/22 09:38:24;;;;;;;18.10;7.30;;;7.20;99.90;;;7.16;70.06;93379.59;5086989;28;20457;-61
2023/12/22 09:40:52;;;;;;;17.10;6.40;;;7.20;99.90;;;7.21;70.52;93378.31;5079047;28;20486;-60
2023/12/22 09:43:20;;;;;;;14.70;7.90;;;7.30;99.90;;;7.27;69.78;93382.94;5082390;28;20450;-61
2023/12/22 09:45:49;;;;;;;15.03;5.80;;;7.30;99.90;;;7.32;69.99;93372.81;5083861;28;20466;-57
2023/12/22 09:48:17;;;;;;;18.93;7.60;;;7.40;99.90;;;7.38;70.55;93380.03;5079002;28;20489;-57
2023/12/22 09:50:45;;;;;;;8.47;5.30;;;7.40;99.90;;;7.43;70.29;93376.94;5079815;28;20471;-56
2023/12/22 09:53:13;;;;;;;27.13;6.13;;;7.50;99.90;;;7.48;70.34;93379.88;5083460;28;20473;-57
2023/12/22 09:55:43;;;;;;;17.10;6.93;;;7.50;99.90;;;7.55;71.72;93380.91;5078650;28;20470;-61
2023/12/22 09:58:11;;;;;;;15.50;7.87;;;7.60;99.90;;;7.63;71.30;93380.91;5079642;28;20463;-56
2023/12/22 10:00:38;;;;;;;16.40;8.17;;;7.70;99.90;;;7.71;70.78;93374.91;5078589;28;20471;-63
2023/12/22 10:03:07;;;;;;;9.70;6.80;;;7.70;99.90;;;7.77;71.57;93369.03;5077060;28;20455;-57
2023/12/22 10:05:34;;;;;;;10.27;7.20;;;7.80;99.90;;;7.79;70.29;93355.78;5078528;28;20489;-61
2023/12/22 10:08:02;;;;;;;9.67;6.50;;;7.80;99.90;;;7.82;70.30;93348.44;5081864;28;20452;-61
2023/12/22 10:10:30;;;;;;;12.10;6.70;;;7.90;99.90;;;7.86;70.18;93362.03;5078011;28;20475;-59
2023/12/22 10:12:57;;;;;;;13.43;6.50;;;7.90;99.90;;;7.90;69.83;93368.59;5077918;28;20509;-61
2023/12/22 10:15:25;;;;;;;9.90;5.70;;;7.90;99.90;;;7.93;69.60;93356.94;5077997;28;20459;-62
2023/12/22 10:17:52;;;;;;;15.60;5.60;;;8.00;99.90;;;7.94;70.29;93340.28;5078213;28;20455;-60
2023/12/22 10:20:21;;;;;;;10.33;6.70;;;8.00;99.90;;;7.97;69.66;93345.19;5077696;28;20466;-61
2023/12/22 10:22:48;;;;;;;8.27;5.80;;;8.00;99.90;;;8.02;69.69;93340.28;5078095;28;20954;-60
2023/12/22 10:25:17;;;;;;;16.07;8.57;;;8.00;99.90;;;8.11;69.74;93334.06;5077904;28;20475;-57
2023/12/22 10:27:44;;;;;;;14.60;6.50;;;8.10;99.90;;;8.24;69.61;93329.16;5077779;28;20490;-57